createdAt,value
2018-07-24T00:00:41.815Z,6.35
2018-07-24T00:01:45.563Z,5.00
2018-07-24T00:02:49.152Z,6.80
2018-07-24T00:03:52.958Z,6.25
2018-07-24T00:04:56.473Z,8.65
2018-07-24T00:05:59.995Z,6.00
2018-07-24T00:07:03.624Z,5.95
2018-07-24T00:08:07.209Z,4.97
2018-07-24T00:09:10.834Z,6.92
2018-07-24T00:10:14.311Z,7.50
2018-07-24T00:11:17.919Z,5.55
2018-07-24T00:12:21.553Z,6.90
2018-07-24T00:13:25.350Z,6.90
2018-07-24T00:14:28.941Z,10.03
2018-07-24T00:15:34.069Z,10.15
2018-07-24T00:16:37.613Z,8.00
2018-07-24T00:17:41.088Z,5.72
2018-07-24T00:18:44.548Z,6.65
2018-07-24T00:19:48.085Z,6.50
2018-07-24T00:20:51.585Z,5.97
2018-07-24T00:21:55.172Z,7.80
2018-07-24T00:22:58.721Z,6.78
2018-07-24T00:24:02.256Z,5.83
2018-07-24T00:25:05.732Z,6.87
2018-07-24T00:26:09.331Z,5.87
2018-07-24T00:27:12.936Z,7.47
2018-07-24T00:28:16.377Z,7.37
2018-07-24T00:29:19.678Z,6.22
2018-07-24T00:30:23.180Z,9.93
2018-07-24T00:31:26.685Z,6.95
2018-07-24T00:32:30.326Z,5.83
2018-07-24T00:33:33.826Z,7.10
2018-07-24T00:34:37.338Z,6.70
2018-07-24T00:35:42.066Z,7.03
2018-07-24T00:36:46.422Z,7.05
2018-07-24T00:37:50.484Z,6.62
2018-07-24T00:38:53.976Z,7.30
2018-07-24T00:39:58.766Z,6.00
2018-07-24T00:41:03.900Z,5.42
2018-07-24T00:42:08.522Z,8.60
2018-07-24T00:43:12.058Z,5.65
2018-07-24T00:44:15.617Z,7.00
2018-07-24T00:45:19.066Z,5.72
2018-07-24T00:46:22.212Z,8.03
2018-07-24T00:47:25.894Z,6.62
2018-07-24T00:48:29.461Z,6.00
2018-07-24T00:49:33.082Z,5.58
2018-07-24T00:50:36.747Z,6.45
2018-07-24T00:51:40.254Z,6.37
2018-07-24T00:52:43.733Z,8.85
2018-07-24T00:53:47.784Z,5.83
2018-07-24T00:54:51.309Z,6.28
2018-07-24T00:55:54.911Z,5.17
2018-07-24T00:56:58.522Z,5.72
2018-07-24T00:58:02.036Z,5.40
2018-07-24T00:59:05.857Z,7.12
2018-07-24T01:00:09.385Z,10.65
2018-07-24T01:01:12.930Z,6.83
2018-07-24T01:02:16.414Z,6.20
2018-07-24T01:03:19.927Z,5.85
2018-07-24T01:04:23.391Z,7.17
2018-07-24T01:05:27.060Z,5.55
2018-07-24T01:06:30.730Z,6.87
2018-07-24T01:07:38.709Z,6.30
2018-07-24T01:08:42.311Z,6.65
2018-07-24T01:09:46.369Z,8.00
2018-07-24T01:10:49.928Z,5.40
2018-07-24T01:11:53.445Z,8.45
2018-07-24T01:12:57.015Z,6.40
2018-07-24T01:14:00.510Z,9.75
2018-07-24T01:15:04.740Z,6.83
2018-07-24T01:16:08.189Z,5.75
2018-07-24T01:17:11.686Z,6.80
2018-07-24T01:18:15.286Z,6.30
2018-07-24T01:19:18.837Z,6.35
2018-07-24T01:20:22.479Z,6.75
2018-07-24T01:21:25.929Z,7.58
2018-07-24T01:22:30.065Z,5.78
2018-07-24T01:23:33.621Z,8.45
2018-07-24T01:24:39.847Z,8.68
2018-07-24T01:25:43.490Z,6.10
2018-07-24T01:26:46.988Z,6.33
2018-07-24T01:27:50.573Z,6.40
2018-07-24T01:28:54.023Z,5.80
2018-07-24T01:29:57.636Z,5.53
2018-07-24T01:31:01.097Z,6.55
2018-07-24T01:32:04.549Z,6.97
2018-07-24T01:33:08.185Z,8.45
2018-07-24T01:34:11.682Z,6.97
2018-07-24T01:35:15.302Z,6.22
2018-07-24T01:36:18.954Z,6.25
2018-07-24T01:37:22.567Z,6.80
2018-07-24T01:38:26.023Z,7.45
2018-07-24T01:39:30.215Z,6.60
2018-07-24T01:40:33.803Z,6.67
2018-07-24T01:41:37.424Z,8.48
2018-07-24T01:42:40.910Z,6.05
2018-07-24T01:43:44.367Z,8.18
2018-07-24T01:44:47.995Z,8.48
2018-07-24T01:45:51.614Z,7.67
2018-07-24T01:46:55.165Z,6.83
2018-07-24T01:47:59.923Z,9.53
2018-07-24T01:49:03.578Z,6.83
2018-07-24T01:50:07.342Z,6.87
2018-07-24T01:51:11.221Z,6.17
2018-07-24T01:52:14.818Z,6.55
2018-07-24T01:53:18.435Z,8.90
2018-07-24T01:54:21.901Z,7.50
2018-07-24T01:55:25.449Z,7.85
2018-07-24T01:56:30.092Z,7.17
2018-07-24T01:57:33.532Z,7.67
2018-07-24T01:58:36.815Z,7.50
2018-07-24T01:59:40.394Z,9.38
2018-07-24T02:00:44.136Z,9.18
2018-07-24T02:01:47.811Z,9.15
2018-07-24T02:02:51.279Z,8.73
2018-07-24T02:03:54.837Z,7.58
2018-07-24T02:04:59.100Z,7.62
2018-07-24T02:06:04.436Z,7.65
2018-07-24T02:07:08.002Z,8.50
2018-07-24T02:08:11.515Z,9.98
2018-07-24T02:09:15.011Z,8.50
2018-07-24T02:10:18.509Z,7.97
2018-07-24T02:11:22.677Z,8.28
2018-07-24T02:12:26.246Z,8.50
2018-07-24T02:13:30.010Z,7.47
2018-07-24T02:14:33.664Z,8.35
2018-07-24T02:15:37.264Z,8.13
2018-07-24T02:16:40.721Z,8.33
2018-07-24T02:17:44.517Z,10.35
2018-07-24T02:18:47.953Z,10.78
2018-07-24T02:19:51.565Z,10.35
2018-07-24T02:20:55.163Z,9.43
2018-07-24T02:21:58.637Z,7.42
2018-07-24T02:23:02.410Z,9.35
2018-07-24T02:24:06.138Z,9.20
2018-07-24T02:25:09.731Z,7.47
2018-07-24T02:26:13.397Z,8.55
2018-07-24T02:27:17.200Z,8.58
2018-07-24T02:28:21.269Z,8.33
2018-07-24T02:29:25.479Z,7.58
2018-07-24T02:30:29.063Z,8.08
2018-07-24T02:31:32.729Z,10.60
2018-07-24T02:32:36.416Z,7.62
2018-07-24T02:33:40.070Z,8.03
2018-07-24T02:34:43.744Z,8.65
2018-07-24T02:35:47.374Z,7.33
2018-07-24T02:36:51.028Z,9.35
2018-07-24T02:37:54.226Z,8.90
2018-07-24T02:38:57.875Z,7.60
2018-07-24T02:40:01.372Z,9.88
2018-07-24T02:41:05.174Z,7.05
2018-07-24T02:42:09.539Z,8.13
2018-07-24T02:43:13.163Z,9.88
2018-07-24T02:44:17.321Z,8.08
2018-07-24T02:45:20.806Z,8.93
2018-07-24T02:46:24.858Z,7.03
2018-07-24T02:47:28.455Z,6.70
2018-07-24T02:48:32.671Z,9.28
2018-07-24T02:49:36.746Z,9.33
2018-07-24T02:50:40.332Z,10.20
2018-07-24T02:51:43.886Z,9.13
2018-07-24T02:52:47.384Z,8.78
2018-07-24T02:53:50.922Z,8.05
2018-07-24T02:54:54.906Z,8.05
2018-07-24T02:55:58.852Z,9.13
2018-07-24T02:57:02.456Z,10.48
2018-07-24T02:58:06.050Z,8.65
2018-07-24T02:59:09.580Z,9.48
2018-07-24T03:00:13.261Z,10.15
2018-07-24T03:01:16.783Z,7.37
2018-07-24T03:02:20.405Z,7.80
2018-07-24T03:03:23.932Z,11.05
2018-07-24T03:04:27.428Z,10.23
2018-07-24T03:05:30.944Z,10.35
2018-07-24T03:06:34.516Z,8.68
2018-07-24T03:07:38.114Z,9.58
2018-07-24T03:08:41.702Z,8.10
2018-07-24T03:09:45.193Z,9.90
2018-07-24T03:10:48.702Z,6.97
2018-07-24T03:11:52.799Z,13.45
2018-07-24T03:12:55.970Z,12.73
2018-07-24T03:14:00.264Z,10.90
2018-07-24T03:15:04.230Z,11.10
2018-07-24T03:16:08.149Z,10.60
2018-07-24T03:17:12.541Z,8.90
2018-07-24T03:18:16.092Z,9.58
2018-07-24T03:19:19.642Z,9.88
2018-07-24T03:20:23.156Z,8.33
2018-07-24T03:21:27.661Z,8.40
2018-07-24T03:22:31.150Z,8.90
2018-07-24T03:23:34.655Z,11.63
2018-07-24T03:24:38.553Z,11.55
2018-07-24T03:25:42.161Z,9.55
2018-07-24T03:26:46.264Z,11.30
2018-07-24T03:27:49.886Z,12.60
2018-07-24T03:28:53.425Z,11.20
2018-07-24T03:29:57.048Z,11.48
2018-07-24T03:31:01.159Z,11.33
2018-07-24T03:32:04.768Z,11.65
2018-07-24T03:33:08.458Z,14.05
2018-07-24T03:34:12.952Z,14.00
2018-07-24T03:35:16.382Z,13.85
2018-07-24T03:36:19.981Z,10.53
2018-07-24T03:37:23.535Z,11.28
2018-07-24T03:38:27.220Z,11.83
2018-07-24T03:39:30.786Z,13.68
2018-07-24T03:40:34.378Z,11.48
2018-07-24T03:41:37.891Z,10.05
2018-07-24T03:42:41.529Z,12.82
2018-07-24T03:43:45.220Z,11.33
2018-07-24T03:44:48.705Z,11.48
2018-07-24T03:45:52.168Z,10.90
2018-07-24T03:46:55.642Z,12.28
2018-07-24T03:47:59.216Z,11.55
2018-07-24T03:49:02.962Z,10.88
2018-07-24T03:50:06.633Z,14.40
2018-07-24T03:51:10.362Z,13.18
2018-07-24T03:52:14.045Z,14.98
2018-07-24T03:53:17.591Z,10.45
2018-07-24T03:54:21.165Z,13.32
2018-07-24T03:55:24.698Z,11.05
2018-07-24T03:56:28.349Z,14.50
2018-07-24T03:57:31.918Z,12.80
2018-07-24T03:58:35.582Z,11.83
2018-07-24T03:59:39.110Z,14.68
2018-07-24T04:00:42.586Z,13.08
2018-07-24T04:01:46.303Z,14.15
2018-07-24T04:02:50.483Z,12.88
2018-07-24T04:03:54.242Z,14.38
2018-07-24T04:04:57.718Z,13.85
2018-07-24T04:06:01.294Z,14.58
2018-07-24T04:07:04.808Z,16.00
2018-07-24T04:08:08.432Z,11.45
2018-07-24T04:09:12.335Z,15.90
2018-07-24T04:10:15.944Z,12.63
2018-07-24T04:11:19.563Z,12.75
2018-07-24T04:12:23.137Z,13.80
2018-07-24T04:13:27.664Z,13.35
2018-07-24T04:14:31.301Z,19.07
2018-07-24T04:15:35.588Z,12.35
2018-07-24T04:16:39.307Z,12.82
2018-07-24T04:17:42.910Z,13.00
2018-07-24T04:18:49.020Z,15.23
2018-07-24T04:19:52.528Z,13.98
2018-07-24T04:20:56.123Z,16.65
2018-07-24T04:21:59.630Z,14.65
2018-07-24T04:23:03.215Z,13.53
2018-07-24T04:24:06.817Z,14.13
2018-07-24T04:25:10.364Z,13.80
2018-07-24T04:26:14.551Z,15.30
2018-07-24T04:27:18.705Z,15.72
2018-07-24T04:28:23.237Z,14.13
2018-07-24T04:29:26.796Z,14.58
2018-07-24T04:30:30.349Z,15.05
2018-07-24T04:31:33.816Z,12.80
2018-07-24T04:32:37.412Z,12.70
2018-07-24T04:33:41.603Z,12.25
2018-07-24T04:34:45.689Z,16.77
2018-07-24T04:35:49.298Z,13.08
2018-07-24T04:36:52.782Z,11.68
2018-07-24T04:37:56.728Z,12.20
2018-07-24T04:39:01.613Z,11.15
2018-07-24T04:40:05.949Z,10.82
2018-07-24T04:41:09.903Z,10.53
2018-07-24T04:42:13.697Z,10.10
2018-07-24T04:43:17.254Z,12.70
2018-07-24T04:44:20.990Z,10.93
2018-07-24T04:45:24.658Z,11.25
2018-07-24T04:46:28.161Z,10.25
2018-07-24T04:47:31.702Z,12.03
2018-07-24T04:48:38.949Z,11.93
2018-07-24T04:49:43.439Z,9.00
2018-07-24T04:50:47.082Z,11.80
2018-07-24T04:51:50.665Z,11.88
2018-07-24T04:52:54.638Z,10.70
2018-07-24T04:53:58.159Z,9.60
2018-07-24T04:55:01.771Z,11.15
2018-07-24T04:56:05.686Z,10.03
2018-07-24T04:57:09.328Z,11.57
2018-07-24T04:58:13.869Z,10.23
2018-07-24T04:59:17.462Z,11.08
2018-07-24T05:00:21.093Z,13.65
2018-07-24T05:01:25.469Z,9.75
2018-07-24T05:02:29.937Z,10.20
2018-07-24T05:03:34.269Z,9.70
2018-07-24T05:04:38.479Z,9.28
2018-07-24T05:05:42.095Z,9.63
2018-07-24T05:06:45.820Z,10.23
2018-07-24T05:07:49.313Z,11.80
2018-07-24T05:08:52.855Z,12.82
2018-07-24T05:09:56.421Z,10.82
2018-07-24T05:11:00.859Z,13.30
2018-07-24T05:12:04.426Z,10.03
2018-07-24T05:13:07.921Z,10.53
2018-07-24T05:14:12.862Z,9.65
2018-07-24T05:15:16.381Z,10.68
2018-07-24T05:16:19.877Z,11.03
2018-07-24T05:17:23.505Z,13.65
2018-07-24T05:18:27.213Z,9.68
2018-07-24T05:19:30.955Z,11.33
2018-07-24T05:20:34.607Z,12.15
2018-07-24T05:21:38.500Z,10.58
2018-07-24T05:22:42.243Z,9.63
2018-07-24T05:23:46.255Z,10.20
2018-07-24T05:24:49.767Z,9.40
2018-07-24T05:25:53.445Z,11.10
2018-07-24T05:26:57.032Z,9.25
2018-07-24T05:28:00.605Z,9.28
2018-07-24T05:29:04.701Z,10.72
2018-07-24T05:30:08.502Z,10.08
2018-07-24T05:31:12.847Z,9.58
2018-07-24T05:32:16.410Z,10.32
2018-07-24T05:33:20.038Z,11.53
2018-07-24T05:34:23.666Z,10.45
2018-07-24T05:35:27.772Z,9.50
2018-07-24T05:36:31.398Z,9.80
2018-07-24T05:37:36.040Z,10.18
2018-07-24T05:38:39.680Z,12.53
2018-07-24T05:39:43.993Z,10.18
2018-07-24T05:40:47.526Z,11.30
2018-07-24T05:41:50.986Z,9.90
2018-07-24T05:42:55.152Z,9.83
2018-07-24T05:44:00.075Z,9.98
2018-07-24T05:45:03.837Z,11.05
2018-07-24T05:46:07.878Z,10.00
2018-07-24T05:47:11.707Z,10.98
2018-07-24T05:48:16.256Z,10.23
2018-07-24T05:49:20.309Z,8.63
2018-07-24T05:50:24.436Z,14.98
2018-07-24T05:51:28.858Z,9.05
2018-07-24T05:52:32.455Z,10.43
2018-07-24T05:53:36.554Z,11.85
2018-07-24T05:54:40.244Z,9.95
2018-07-24T05:55:43.875Z,11.08
2018-07-24T05:56:47.456Z,9.65
2018-07-24T05:57:51.135Z,9.78
2018-07-24T05:58:55.590Z,10.35
2018-07-24T05:59:59.190Z,9.35
2018-07-24T06:01:03.058Z,10.28
2018-07-24T06:02:07.797Z,9.18
2018-07-24T06:03:11.740Z,9.03
2018-07-24T06:04:16.918Z,10.40
2018-07-24T06:05:20.776Z,9.55
2018-07-24T06:06:24.721Z,9.30
2018-07-24T06:07:28.556Z,9.33
2018-07-24T06:08:32.199Z,8.78
2018-07-24T06:09:35.794Z,10.65
2018-07-24T06:10:39.390Z,8.80
2018-07-24T06:11:42.621Z,9.40
2018-07-24T06:12:46.872Z,9.20
2018-07-24T06:13:50.554Z,10.55
2018-07-24T06:14:54.294Z,9.98
2018-07-24T06:15:57.983Z,11.45
2018-07-24T06:17:02.573Z,8.50
2018-07-24T06:18:06.450Z,9.13
2018-07-24T06:19:10.301Z,9.65
2018-07-24T06:20:14.612Z,9.63
2018-07-24T06:21:18.127Z,10.32
2018-07-24T06:22:21.616Z,9.35
2018-07-24T06:23:25.202Z,10.78
2018-07-24T06:24:28.931Z,9.88
2018-07-24T06:25:33.687Z,10.72
2018-07-24T06:26:37.277Z,9.43
2018-07-24T06:27:40.833Z,12.23
2018-07-24T06:28:44.556Z,9.15
2018-07-24T06:29:48.144Z,10.10
2018-07-24T06:30:51.647Z,9.98
2018-07-24T06:31:55.187Z,11.40
2018-07-24T06:32:58.711Z,8.98
2018-07-24T06:34:02.432Z,9.40
2018-07-24T06:35:06.156Z,9.08
2018-07-24T06:36:09.867Z,7.92
2018-07-24T06:37:13.496Z,8.70
2018-07-24T06:38:17.032Z,9.18
2018-07-24T06:39:20.701Z,9.03
2018-07-24T06:40:24.859Z,8.33
2018-07-24T06:41:28.018Z,9.45
2018-07-24T06:42:32.161Z,11.05
2018-07-24T06:43:37.238Z,8.85
2018-07-24T06:44:40.773Z,9.70
2018-07-24T06:45:44.400Z,9.18
2018-07-24T06:46:49.280Z,7.60
2018-07-24T06:47:54.329Z,8.65
2018-07-24T06:48:57.892Z,9.63
2018-07-24T06:50:02.277Z,8.58
2018-07-24T06:51:07.024Z,7.03
2018-07-24T06:52:10.784Z,7.85
2018-07-24T06:53:18.079Z,7.53
2018-07-24T06:54:21.764Z,8.50
2018-07-24T06:55:26.351Z,13.05
2018-07-24T06:56:31.364Z,9.35
2018-07-24T06:57:34.921Z,8.75
2018-07-24T06:58:38.614Z,8.08
2018-07-24T06:59:43.830Z,8.53
2018-07-24T07:00:47.576Z,8.80
2018-07-24T07:01:52.136Z,7.92
2018-07-24T07:02:55.955Z,7.83
2018-07-24T07:04:00.443Z,7.95
2018-07-24T07:05:04.275Z,7.97
2018-07-24T07:06:07.827Z,8.05
2018-07-24T07:07:11.465Z,8.00
2018-07-24T07:08:15.521Z,7.60
2018-07-24T07:09:19.065Z,8.00
2018-07-24T07:10:22.723Z,6.35
2018-07-24T07:11:26.650Z,6.87
2018-07-24T07:12:30.293Z,8.80
2018-07-24T07:13:34.446Z,8.43
2018-07-24T07:14:37.982Z,8.15
2018-07-24T07:15:41.639Z,8.30
2018-07-24T07:16:45.528Z,6.83
2018-07-24T07:17:49.165Z,7.72
2018-07-24T07:18:53.430Z,8.65
2018-07-24T07:19:57.550Z,7.10
2018-07-24T07:21:01.241Z,8.88
2018-07-24T07:22:04.997Z,7.62
2018-07-24T07:23:08.613Z,6.75
2018-07-24T07:24:12.440Z,6.28
2018-07-24T07:25:16.055Z,6.53
2018-07-24T07:26:19.921Z,6.70
2018-07-24T07:27:23.469Z,7.75
2018-07-24T07:28:27.120Z,9.98
2018-07-24T07:29:30.755Z,6.15
2018-07-24T07:30:34.949Z,7.33
2018-07-24T07:31:38.524Z,9.65
2018-07-24T07:32:43.267Z,7.95
2018-07-24T07:33:46.876Z,5.65
2018-07-24T07:34:50.934Z,6.03
2018-07-24T07:35:55.158Z,5.75
2018-07-24T07:36:59.930Z,5.60
2018-07-24T07:38:04.475Z,5.85
2018-07-24T07:39:09.646Z,7.75
2018-07-24T07:40:13.345Z,5.95
2018-07-24T07:41:17.126Z,7.60
2018-07-24T07:42:20.725Z,5.00
2018-07-24T07:43:24.669Z,5.22
2018-07-24T07:44:28.222Z,6.53
2018-07-24T07:45:32.140Z,5.10
2018-07-24T07:46:35.747Z,4.70
2018-07-24T07:47:39.639Z,5.22
2018-07-24T07:48:43.563Z,5.62
2018-07-24T07:49:47.168Z,5.35
2018-07-24T07:50:51.567Z,4.60
2018-07-24T07:51:55.984Z,5.17
2018-07-24T07:52:59.795Z,4.97
2018-07-24T07:54:03.504Z,4.45
2018-07-24T07:55:07.524Z,6.28
2018-07-24T07:56:11.338Z,5.00
2018-07-24T07:57:14.898Z,5.08
2018-07-24T07:58:18.499Z,4.20
2018-07-24T07:59:22.176Z,4.70
2018-07-24T08:00:25.762Z,5.87
2018-07-24T08:01:29.420Z,5.95
2018-07-24T08:02:33.171Z,4.30
2018-07-24T08:03:37.446Z,5.30
2018-07-24T08:04:41.027Z,4.80
2018-07-24T08:05:44.574Z,5.20
2018-07-24T08:06:50.023Z,4.62
2018-07-24T08:07:54.249Z,4.90
2018-07-24T08:08:57.931Z,4.45
2018-07-24T08:10:02.005Z,4.62
2018-07-24T08:11:05.710Z,4.15
2018-07-24T08:12:09.382Z,4.65
2018-07-24T08:13:13.893Z,4.45
2018-07-24T08:14:18.167Z,4.45
2018-07-24T08:15:21.731Z,4.22
2018-07-24T08:16:25.506Z,5.05
2018-07-24T08:17:30.096Z,4.22
2018-07-24T08:18:53.177Z,5.15
2018-07-24T08:23:16.375Z,5.03
2018-07-24T08:24:20.368Z,4.65
2018-07-24T08:25:23.806Z,3.83
2018-07-24T08:26:27.737Z,4.47
2018-07-24T08:27:32.171Z,4.37
2018-07-24T08:28:35.791Z,4.17
2018-07-24T08:29:39.485Z,4.40
2018-07-24T08:30:43.199Z,4.65
2018-07-24T08:31:46.976Z,3.98
2018-07-24T08:32:50.771Z,5.22
2018-07-24T08:33:54.684Z,3.92
2018-07-24T08:34:58.531Z,4.75
2018-07-24T08:36:02.442Z,3.98
2018-07-24T08:37:05.999Z,6.80
2018-07-24T08:38:09.602Z,4.10
2018-07-24T08:39:13.529Z,5.42
2018-07-24T08:40:17.333Z,4.05
2018-07-24T08:41:20.958Z,4.15
2018-07-24T08:42:24.708Z,5.00
2018-07-24T08:43:28.181Z,4.42
2018-07-24T08:44:31.761Z,4.37
2018-07-24T08:45:35.261Z,4.05
2018-07-24T08:46:38.769Z,5.00
2018-07-24T08:47:42.331Z,4.17
2018-07-24T08:48:46.376Z,4.08
2018-07-24T08:49:49.888Z,3.83
2018-07-24T08:50:53.419Z,3.65
2018-07-24T08:51:57.219Z,3.77
2018-07-24T08:53:01.509Z,3.58
2018-07-24T08:54:05.142Z,4.60
2018-07-24T08:55:08.987Z,4.58
2018-07-24T08:56:12.325Z,4.28
2018-07-24T08:57:15.911Z,4.55
2018-07-24T08:58:19.445Z,4.25
2018-07-24T08:59:22.919Z,3.42
2018-07-24T09:00:26.420Z,4.15
2018-07-24T09:01:30.190Z,3.95
2018-07-24T09:02:33.759Z,4.08
2018-07-24T09:03:37.578Z,4.53
2018-07-24T09:04:41.633Z,5.00
2018-07-24T09:05:45.277Z,4.22
2018-07-24T09:06:49.096Z,4.42
2018-07-24T09:07:52.763Z,4.30
2018-07-24T09:08:56.285Z,3.92
2018-07-24T09:10:00.184Z,4.10
2018-07-24T09:11:04.462Z,4.87
2018-07-24T09:12:07.948Z,6.25
2018-07-24T09:13:11.758Z,5.92
2018-07-24T09:14:15.251Z,4.28
2018-07-24T09:15:18.784Z,4.67
2018-07-24T09:16:22.018Z,4.25
2018-07-24T09:17:25.606Z,4.78
2018-07-24T09:18:29.329Z,4.70
2018-07-24T09:19:33.710Z,4.20
2018-07-24T09:20:38.194Z,4.90
2018-07-24T09:21:42.404Z,5.47
2018-07-24T09:22:45.851Z,4.97
2018-07-24T09:23:49.388Z,4.28
2018-07-24T09:24:52.939Z,4.87
2018-07-24T09:25:56.479Z,5.87
2018-07-24T09:27:00.087Z,6.05
2018-07-24T09:28:03.753Z,5.33
2018-07-24T09:29:07.355Z,4.62
2018-07-24T09:30:11.595Z,5.12
2018-07-24T09:31:16.019Z,5.85
2018-07-24T09:32:19.692Z,5.00
2018-07-24T09:33:23.870Z,4.70
2018-07-24T09:34:28.058Z,4.95
2018-07-24T09:35:31.954Z,5.87
2018-07-24T09:36:36.103Z,4.15
2018-07-24T09:37:39.929Z,3.65
2018-07-24T09:38:43.295Z,4.72
2018-07-24T09:39:46.897Z,4.42
2018-07-24T09:40:50.481Z,6.08
2018-07-24T09:41:54.100Z,5.87
2018-07-24T09:42:57.845Z,4.20
2018-07-24T09:44:01.528Z,4.15
2018-07-24T09:45:05.817Z,4.87
2018-07-24T09:46:09.331Z,6.85
2018-07-24T09:47:13.872Z,4.08
2018-07-24T09:48:17.654Z,6.95
2018-07-24T09:49:22.031Z,5.12
2018-07-24T09:50:26.178Z,4.15
2018-07-24T09:51:31.377Z,3.77
2018-07-24T09:52:34.929Z,4.33
2018-07-24T09:53:39.668Z,4.37
2018-07-24T09:54:43.237Z,4.50
2018-07-24T09:55:46.784Z,3.75
2018-07-24T09:56:50.621Z,5.30
2018-07-24T09:57:54.590Z,3.98
2018-07-24T09:58:58.150Z,3.92
2018-07-24T10:00:01.809Z,4.40
2018-07-24T10:01:10.905Z,4.10
2018-07-24T10:02:14.617Z,4.22
2018-07-24T10:03:18.413Z,5.05
2018-07-24T10:04:22.371Z,4.40
2018-07-24T10:05:26.014Z,4.15
2018-07-24T10:06:29.734Z,5.12
2018-07-24T10:07:33.803Z,4.47
2018-07-24T10:08:38.102Z,4.78
2018-07-24T10:09:42.693Z,3.85
2018-07-24T10:10:46.494Z,3.90
2018-07-24T10:11:50.666Z,3.95
2018-07-24T10:12:54.623Z,4.33
2018-07-24T10:13:58.308Z,5.67
2018-07-24T10:15:01.861Z,7.10
2018-07-24T10:16:05.543Z,3.75
2018-07-24T10:17:09.791Z,5.42
2018-07-24T10:18:13.499Z,4.70
2018-07-24T10:19:17.007Z,5.50
2018-07-24T10:20:20.551Z,4.83
2018-07-24T10:21:24.176Z,4.00
2018-07-24T10:22:27.720Z,6.22
2018-07-24T10:23:31.406Z,5.53
2018-07-24T10:24:34.977Z,3.72
2018-07-24T10:25:38.670Z,4.72
2018-07-24T10:26:42.155Z,4.28
2018-07-24T10:27:46.371Z,3.92
2018-07-24T10:28:50.218Z,4.40
2018-07-24T10:29:54.424Z,3.75
2018-07-24T10:30:58.388Z,4.37
2018-07-24T10:32:01.971Z,4.92
2018-07-24T10:33:05.791Z,4.00
2018-07-24T10:34:09.373Z,4.17
2018-07-24T10:35:13.089Z,4.08
2018-07-24T10:36:17.286Z,4.17
2018-07-24T10:37:20.858Z,3.98
2018-07-24T10:38:24.447Z,3.85
2018-07-24T10:39:27.914Z,3.47
2018-07-24T10:40:31.620Z,3.62
2018-07-24T10:41:35.761Z,3.70
2018-07-24T10:42:39.987Z,3.90
2018-07-24T10:43:43.660Z,4.60
2018-07-24T10:44:47.251Z,4.25
2018-07-24T10:45:50.881Z,3.92
2018-07-24T10:46:54.484Z,4.15
2018-07-24T10:47:58.123Z,3.58
2018-07-24T10:49:01.757Z,5.17
2018-07-24T10:50:05.629Z,3.42
2018-07-24T10:51:09.234Z,4.75
2018-07-24T10:52:13.122Z,3.27
2018-07-24T10:53:16.679Z,4.05
2018-07-24T10:54:20.867Z,3.47
2018-07-24T10:55:24.585Z,5.90
2018-07-24T10:56:28.485Z,4.45
2018-07-24T10:57:32.205Z,3.72
2018-07-24T10:58:36.486Z,3.47
2018-07-24T10:59:40.378Z,5.90
2018-07-24T11:00:44.024Z,4.17
2018-07-24T11:01:48.178Z,3.92
2018-07-24T11:02:52.000Z,5.60
2018-07-24T11:03:55.967Z,3.77
2018-07-24T11:05:00.046Z,3.02
2018-07-24T11:06:04.128Z,3.85
2018-07-24T11:07:07.701Z,2.95
2018-07-24T11:08:12.064Z,7.22
2018-07-24T11:09:15.707Z,3.45
2018-07-24T11:10:19.689Z,4.05
2018-07-24T11:11:23.794Z,3.40
2018-07-24T11:12:27.439Z,4.92
2018-07-24T11:13:31.206Z,3.00
2018-07-24T11:14:35.372Z,3.20
2018-07-24T11:15:38.982Z,2.77
2018-07-24T11:16:42.751Z,4.75
2018-07-24T11:17:46.361Z,2.98
2018-07-24T11:18:50.843Z,4.47
2018-07-24T11:19:54.352Z,3.52
2018-07-24T11:20:58.516Z,3.47
2018-07-24T11:22:02.188Z,3.90
2018-07-24T11:23:05.878Z,4.10
2018-07-24T11:24:09.573Z,3.65
2018-07-24T11:25:13.205Z,3.35
2018-07-24T11:26:16.961Z,6.37
2018-07-24T11:27:21.425Z,4.35
2018-07-24T11:28:24.901Z,4.10
2018-07-24T11:29:28.491Z,4.15
2018-07-24T11:30:32.153Z,5.10
2018-07-24T11:31:35.768Z,3.37
2018-07-24T11:32:40.239Z,3.60
2018-07-24T11:33:43.833Z,3.98
2018-07-24T11:34:47.382Z,3.45
2018-07-24T11:35:51.083Z,3.30
2018-07-24T11:36:55.301Z,3.58
2018-07-24T11:37:58.791Z,4.62
2018-07-24T11:39:02.433Z,4.42
2018-07-24T11:40:06.115Z,3.52
2018-07-24T11:41:09.736Z,3.75
2018-07-24T11:42:13.367Z,3.50
2018-07-24T11:43:17.022Z,3.72
2018-07-24T11:44:20.810Z,4.30
2018-07-24T11:45:25.064Z,3.50
2018-07-24T11:46:28.692Z,5.10
2018-07-24T11:47:32.990Z,4.30
2018-07-24T11:48:36.789Z,4.10
2018-07-24T11:49:41.220Z,4.10
2018-07-24T11:50:45.816Z,4.05
2018-07-24T11:51:50.067Z,5.83
2018-07-24T11:52:53.546Z,5.35
2018-07-24T11:53:57.264Z,5.20
2018-07-24T11:55:00.910Z,5.28
2018-07-24T11:56:04.615Z,4.33
2018-07-24T11:57:08.341Z,4.00
2018-07-24T11:58:12.058Z,3.77
2018-07-24T11:59:15.775Z,3.77
2018-07-24T12:00:19.731Z,3.40
2018-07-24T12:01:23.335Z,4.50
2018-07-24T12:02:27.054Z,4.10
2018-07-24T12:03:31.168Z,3.45
2018-07-24T12:04:35.565Z,4.00
2018-07-24T12:05:39.133Z,5.60
2018-07-24T12:06:42.712Z,3.85
2018-07-24T12:07:46.297Z,3.12
2018-07-24T12:08:50.158Z,4.20
2018-07-24T12:09:53.661Z,4.85
2018-07-24T12:10:57.141Z,4.87
2018-07-24T12:12:01.294Z,4.83
2018-07-24T12:13:04.929Z,4.08
2018-07-24T12:14:08.576Z,3.92
2018-07-24T12:15:13.429Z,3.50
2018-07-24T12:16:17.552Z,5.95
2018-07-24T12:17:21.066Z,5.35
2018-07-24T12:18:24.556Z,3.80
2018-07-24T12:19:28.139Z,3.87
2018-07-24T12:20:31.728Z,5.30
2018-07-24T12:21:35.227Z,3.60
2018-07-24T12:22:39.132Z,6.95
2018-07-24T12:23:43.945Z,4.22
2018-07-24T12:24:47.529Z,3.67
2018-07-24T12:25:51.073Z,3.52
2018-07-24T12:26:54.567Z,5.20
2018-07-24T12:27:59.810Z,4.22
2018-07-24T12:29:03.774Z,3.55
2018-07-24T12:30:08.012Z,4.58
2018-07-24T12:31:11.959Z,4.12
2018-07-24T12:32:15.787Z,3.85
2018-07-24T12:33:19.293Z,6.03
2018-07-24T12:34:23.176Z,3.90
2018-07-24T12:35:27.303Z,4.33
2018-07-24T12:36:30.905Z,3.58
2018-07-24T12:37:34.383Z,3.90
2018-07-24T12:38:37.849Z,4.37
2018-07-24T12:39:42.148Z,3.33
2018-07-24T12:40:45.941Z,5.00
2018-07-24T12:41:49.452Z,3.37
2018-07-24T12:42:53.709Z,3.92
2018-07-24T12:43:57.413Z,4.75
2018-07-24T12:45:01.764Z,4.37
2018-07-24T12:46:05.524Z,4.37
2018-07-24T12:47:09.170Z,3.77
2018-07-24T12:48:12.778Z,3.27
2018-07-24T12:49:15.941Z,5.47
2018-07-24T12:50:19.510Z,6.47
2018-07-24T12:51:23.095Z,4.10
2018-07-24T12:52:26.654Z,4.55
2018-07-24T12:53:30.347Z,5.22
2018-07-24T12:54:33.835Z,4.05
2018-07-24T12:55:37.377Z,4.17
2018-07-24T12:56:40.913Z,4.37
2018-07-24T12:57:44.749Z,3.62
2018-07-24T12:58:48.364Z,3.98
2018-07-24T12:59:52.042Z,3.87
2018-07-24T13:00:55.969Z,3.47
2018-07-24T13:01:59.490Z,3.90
2018-07-24T13:03:03.039Z,4.28
2018-07-24T13:04:06.786Z,4.83
2018-07-24T13:05:10.328Z,3.42
2018-07-24T13:06:13.850Z,3.33
2018-07-24T13:07:17.481Z,3.95
2018-07-24T13:08:21.009Z,3.50
2018-07-24T13:09:24.248Z,4.67
2018-07-24T13:10:28.107Z,5.45
2018-07-24T13:11:31.629Z,5.00
2018-07-24T13:12:35.953Z,4.25
2018-07-24T13:13:39.616Z,5.08
2018-07-24T13:14:43.318Z,4.03
2018-07-24T13:15:47.032Z,4.70
2018-07-24T13:16:50.511Z,4.10
2018-07-24T13:17:54.223Z,5.42
2018-07-24T13:18:57.836Z,3.20
2018-07-24T13:20:01.438Z,3.00
2018-07-24T13:21:05.141Z,3.98
2018-07-24T13:22:08.825Z,3.20
2018-07-24T13:23:13.225Z,3.45
2018-07-24T13:24:17.135Z,6.53
2018-07-24T13:25:20.815Z,4.65
2018-07-24T13:26:24.641Z,4.12
2018-07-24T13:27:28.758Z,3.70
2018-07-24T13:28:32.254Z,5.67
2018-07-24T13:29:35.839Z,3.77
2018-07-24T13:30:39.487Z,3.70
2018-07-24T13:31:43.063Z,5.22
2018-07-24T13:32:46.645Z,3.45
2018-07-24T13:33:50.234Z,3.50
2018-07-24T13:34:54.462Z,4.10
2018-07-24T13:35:58.787Z,5.08
2018-07-24T13:37:02.347Z,4.17
2018-07-24T13:38:06.681Z,3.27
2018-07-24T13:39:11.673Z,2.62
2018-07-24T13:40:14.905Z,3.02
2018-07-24T13:41:18.453Z,3.15
2018-07-24T13:42:22.227Z,2.65
2018-07-24T13:43:25.895Z,3.00
2018-07-24T13:44:29.486Z,3.65
2018-07-24T13:45:33.087Z,2.62
2018-07-24T13:46:37.077Z,4.10
2018-07-24T13:47:40.893Z,3.98
2018-07-24T13:48:44.415Z,2.95
2018-07-24T13:49:47.928Z,4.33
2018-07-24T13:50:51.608Z,4.00
2018-07-24T13:51:55.198Z,3.37
2018-07-24T13:52:58.682Z,4.50
2018-07-24T13:54:02.846Z,3.40
2018-07-24T13:55:06.567Z,3.30
2018-07-24T13:56:10.153Z,3.17
2018-07-24T13:57:13.729Z,4.12
2018-07-24T13:58:17.271Z,3.35
2018-07-24T13:59:20.797Z,3.22
2018-07-24T14:00:24.991Z,3.30
2018-07-24T14:01:28.536Z,4.87
2018-07-24T14:02:32.011Z,2.72
2018-07-24T14:03:35.636Z,3.40
2018-07-24T14:04:39.362Z,3.10
2018-07-24T14:05:43.513Z,2.72
2018-07-24T14:06:47.144Z,3.83
2018-07-24T14:07:50.737Z,3.50